Time;durP1;ratioP1;P1;durP2;ratioP2;P2;SDS_P1;SDS_P2;PMS_P1;PMS_P2;Temp;Humidity;BMP_temperature;BMP_pressure;BME280_temperature;BME280_humidity;BME280_pressure;Samples;Min_cycle;Max_cycle;Signal;HPM_P1;HPM_P2
2022/08/03 00:00:15;;;;;;;1999.90;999.90;;;;;;;14.71;100.00;99944.91;5062345;28;20044;-51
2022/08/03 00:03:03;;;;;;;1999.90;999.90;;;;;;;14.72;100.00;99943.97;5062427;28;20041;-51
2022/08/03 00:05:47;;;;;;;1999.90;999.90;;;;;;;14.82;100.00;99940.06;5073183;28;20468;-51
2022/08/03 00:08:31;;;;;;;1999.90;999.90;;;;;;;14.83;100.00;99943.56;5077458;28;20482;-51
2022/08/03 00:11:16;;;;;;;1999.90;999.90;;;;;;;14.80;100.00;99944.53;5068237;28;20051;-51
2022/08/03 00:14:02;;;;;;;1999.90;999.90;;;;;;;14.79;100.00;99934.91;5071474;28;20796;-51
2022/08/03 00:16:46;;;;;;;1999.90;999.90;;;;;;;14.89;100.00;99943.31;5075704;28;20091;-52
2022/08/03 00:19:30;;;;;;;1999.90;999.90;;;;;;;14.85;100.00;99932.03;5073782;28;20459;-51
2022/08/03 00:22:15;;;;;;;1999.90;999.90;;;;;;;14.86;100.00;99935.53;5067501;28;20045;-51
2022/08/03 00:24:59;;;;;;;1999.90;999.90;;;;;;;14.80;100.00;99943.69;5059469;28;20059;-51
2022/08/03 00:27:44;;;;;;;1999.90;999.90;;;;;;;14.84;100.00;99940.00;5061054;28;20391;-51
2022/08/03 00:30:29;;;;;;;1999.90;999.90;;;;;;;14.74;100.00;99934.25;5063988;28;20056;-51
2022/08/03 00:33:13;;;;;;;1999.90;999.90;;;;;;;14.78;100.00;99940.25;5060020;28;20048;-51
2022/08/03 00:35:57;;;;;;;1999.90;999.90;;;;;;;14.82;100.00;99944.47;5059244;28;20051;-51
2022/08/03 00:38:42;;;;;;;1999.90;999.90;;;;;;;14.89;100.00;99943.31;5067728;28;20045;-51
2022/08/03 00:41:26;;;;;;;1999.90;999.90;;;;;;;14.81;100.00;99937.47;5068321;28;20102;-52
2022/08/03 00:44:11;;;;;;;1999.90;999.90;;;;;;;14.82;100.00;99942.72;5074252;28;20391;-52
2022/08/03 00:46:55;;;;;;;1999.90;999.90;;;;;;;14.75;100.00;99935.94;5069282;28;20055;-51
2022/08/03 00:49:40;;;;;;;1999.90;999.90;;;;;;;14.80;100.00;99941.06;5059067;28;20497;-52
2022/08/03 00:52:24;;;;;;;1999.90;999.90;;;;;;;14.81;100.00;99943.59;5059184;28;20050;-51
2022/08/03 00:55:10;;;;;;;1999.90;999.90;;;;;;;14.75;100.00;99941.22;5065606;28;20483;-51
2022/08/03 00:57:55;;;;;;;1999.90;999.90;;;;;;;14.76;100.00;99929.78;5066591;28;20059;-51
2022/08/03 01:00:40;;;;;;;1999.90;999.90;;;;;;;14.76;100.00;99935.03;5076677;28;20105;-51
2022/08/03 01:03:24;;;;;;;1999.90;999.90;;;;;;;14.72;100.00;99926.41;5067491;28;20071;-51
2022/08/03 01:06:18;;;;;;;1999.90;999.90;;;;;;;14.71;100.00;99934.34;5057534;28;20103;-51
2022/08/03 01:09:23;;;;;;;1999.90;999.90;;;;;;;14.75;100.00;99935.09;5072832;28;20044;-51
2022/08/03 01:12:21;;;;;;;1999.90;999.90;;;;;;;14.66;100.00;99942.47;5069098;28;20055;-52
2022/08/03 01:15:05;;;;;;;1999.90;999.90;;;;;;;14.68;100.00;99937.97;5070686;28;20094;-51
2022/08/03 01:18:02;;;;;;;1999.90;999.90;;;;;;;14.56;100.00;99927.03;5056833;28;20052;-51
2022/08/03 01:20:52;;;;;;;1999.90;999.90;;;;;;;14.62;100.00;99937.34;5055443;28;20479;-51
2022/08/03 01:24:05;;;;;;;1999.90;999.90;;;;;;;14.61;100.00;99933.88;5056256;28;20081;-51
2022/08/03 01:27:07;;;;;;;1999.90;999.90;;;;;;;14.59;100.00;99938.34;5057334;28;20036;-52
2022/08/03 01:30:06;;;;;;;1999.90;999.90;;;;;;;14.55;100.00;99941.16;5055699;28;20033;-51
2022/08/03 01:33:02;;;;;;;1999.90;999.90;;;;;;;14.51;100.00;99939.56;5056127;28;20052;-51
2022/08/03 01:35:58;;;;;;;1999.90;999.90;;;;;;;14.53;100.00;99935.97;5056424;28;20057;-52
2022/08/03 01:38:54;;;;;;;1999.90;999.90;;;;;;;14.42;100.00;99935.47;5062834;28;20190;-51
2022/08/03 01:41:49;;;;;;;1999.90;999.90;;;;;;;14.35;100.00;99926.09;5058986;28;20063;-51
2022/08/03 01:44:39;;;;;;;1999.90;999.90;;;;;;;14.28;100.00;99943.91;5068884;28;20047;-51
2022/08/03 01:47:24;;;;;;;1999.90;999.90;;;;;;;14.30;100.00;99935.94;5060500;28;20037;-52
2022/08/03 01:50:11;;;;;;;1999.90;999.90;;;;;;;14.32;100.00;99934.97;5054456;28;20064;-52
2022/08/03 01:52:57;;;;;;;1999.90;999.90;;;;;;;14.39;100.00;99928.53;5054705;28;20079;-52
2022/08/03 01:55:47;;;;;;;1999.90;999.90;;;;;;;14.45;100.00;99936.22;5054547;28;20067;-51
2022/08/03 01:58:35;;;;;;;1999.90;999.90;;;;;;;14.42;100.00;99932.84;5059434;28;20036;-52
2022/08/03 02:01:21;;;;;;;1999.90;999.90;;;;;;;14.45;100.00;99927.44;5065367;28;20056;-52
2022/08/03 02:04:07;;;;;;;1999.90;999.90;;;;;;;14.50;100.00;99928.13;5056448;28;20076;-51
2022/08/03 02:06:53;;;;;;;1999.90;999.90;;;;;;;14.50;100.00;99925.50;5055335;28;20068;-52
2022/08/03 02:09:40;;;;;;;1999.90;999.90;;;;;;;14.51;100.00;99929.03;5066073;28;20070;-52
2022/08/03 02:12:27;;;;;;;1999.90;999.90;;;;;;;14.48;100.00;99922.06;5065938;28;20055;-52
2022/08/03 02:15:15;;;;;;;1999.90;999.90;;;;;;;14.45;100.00;99933.56;5065110;28;20054;-51
2022/08/03 02:18:00;;;;;;;1999.90;999.90;;;;;;;14.43;100.00;99922.25;5066558;28;20059;-51
2022/08/03 02:20:46;;;;;;;1999.90;999.90;;;;;;;14.38;100.00;99920.72;5066907;28;20051;-52
2022/08/03 02:23:30;;;;;;;1999.90;999.90;;;;;;;14.44;100.00;99921.31;5065165;28;20091;-51
2022/08/03 02:26:18;;;;;;;1999.90;999.90;;;;;;;14.44;100.00;99923.97;5069542;28;20049;-53
2022/08/03 02:29:10;;;;;;;1999.90;999.90;;;;;;;14.37;100.00;99914.59;5065949;28;20071;-51
2022/08/03 02:31:59;;;;;;;1999.90;999.90;;;;;;;14.37;100.00;99911.09;5055920;28;20044;-52
2022/08/03 02:34:47;;;;;;;1999.90;999.90;;;;;;;14.42;100.00;99919.66;5057471;28;20404;-51
2022/08/03 02:37:36;;;;;;;1999.90;999.90;;;;;;;14.39;100.00;99917.16;5055735;28;20055;-51
2022/08/03 02:40:23;;;;;;;1999.90;999.90;;;;;;;14.28;100.00;99920.19;5056853;28;20033;-51
2022/08/03 02:43:14;;;;;;;1999.90;999.90;;;;;;;14.27;100.00;99916.72;5055954;28;20059;-52
2022/08/03 02:45:58;;;;;;;1999.90;999.90;;;;;;;14.31;100.00;99912.19;5055162;28;20906;-52
2022/08/03 02:48:45;;;;;;;1999.90;999.90;;;;;;;14.27;100.00;99911.44;5068106;28;20036;-51
2022/08/03 02:51:32;;;;;;;1999.90;999.90;;;;;;;14.28;100.00;99912.31;5066371;28;20048;-52
2022/08/03 02:54:18;;;;;;;1999.90;999.90;;;;;;;14.36;100.00;99914.63;5059306;28;20049;-53
2022/08/03 02:57:06;;;;;;;1999.90;999.90;;;;;;;14.40;100.00;99921.50;5060171;28;20049;-52
2022/08/03 02:59:52;;;;;;;1999.90;999.90;;;;;;;14.36;100.00;99912.84;5059343;28;20048;-51
2022/08/03 03:02:40;;;;;;;1999.90;999.90;;;;;;;14.33;100.00;99920.00;5057019;28;20041;-52
2022/08/03 03:05:25;;;;;;;1999.90;999.90;;;;;;;14.27;100.00;99929.03;5061288;28;20045;-52
2022/08/03 03:08:13;;;;;;;1999.90;999.90;;;;;;;14.21;100.00;99916.94;5059231;28;20102;-52
2022/08/03 03:10:59;;;;;;;1999.90;999.90;;;;;;;14.26;100.00;99927.28;5052483;28;20056;-52
2022/08/03 03:13:45;;;;;;;1999.90;999.90;;;;;;;14.30;100.00;99930.66;5053047;28;20074;-53
2022/08/03 03:16:31;;;;;;;1999.90;999.90;;;;;;;14.27;100.00;99932.53;5053088;28;20484;-52
2022/08/03 03:19:18;;;;;;;1999.90;999.90;;;;;;;14.26;100.00;99925.50;5058122;28;20049;-51
2022/08/03 03:22:05;;;;;;;1999.90;999.90;;;;;;;14.31;100.00;99925.34;5053372;28;20045;-51
2022/08/03 03:24:51;;;;;;;1999.90;999.90;;;;;;;14.25;100.00;99912.41;5056621;28;20454;-52
2022/08/03 03:27:35;;;;;;;1999.90;999.90;;;;;;;14.14;100.00;99930.41;5053264;28;20954;-52
2022/08/03 03:30:20;;;;;;;1999.90;999.90;;;;;;;14.17;100.00;99931.16;5053243;28;20048;-51
2022/08/03 03:33:05;;;;;;;1999.90;999.90;;;;;;;14.26;100.00;99930.78;5055729;28;20047;-51
2022/08/03 03:35:50;;;;;;;1999.90;999.90;;;;;;;14.33;100.00;99933.19;5055697;28;20048;-52
2022/08/03 03:38:35;;;;;;;1999.90;999.90;;;;;;;14.39;100.00;99923.25;5059809;28;20045;-52
2022/08/03 03:41:20;;;;;;;1999.90;999.90;;;;;;;14.45;100.00;99925.66;5063767;28;20047;-51
2022/08/03 03:44:05;;;;;;;1999.90;999.90;;;;;;;14.43;100.00;99924.88;5064262;28;20049;-51
2022/08/03 03:46:49;;;;;;;1999.90;999.90;;;;;;;14.59;100.00;99927.81;5063432;28;20037;-51
2022/08/03 03:49:35;;;;;;;1999.90;999.90;;;;;;;14.64;100.00;99924.97;5067882;28;20048;-52
2022/08/03 03:52:19;;;;;;;1999.90;999.90;;;;;;;14.72;100.00;99931.69;5068040;28;20048;-52
2022/08/03 03:55:04;;;;;;;1999.90;999.90;;;;;;;14.77;100.00;99933.25;5055742;28;20694;-51
2022/08/03 03:57:48;;;;;;;1999.90;999.90;;;;;;;14.85;100.00;99931.16;5056078;28;20646;-51
2022/08/03 04:00:33;;;;;;;1999.90;999.90;;;;;;;14.95;100.00;99937.81;5069709;28;20055;-52
2022/08/03 04:03:18;;;;;;;1999.90;999.90;;;;;;;15.03;100.00;99935.69;5065613;28;20165;-53
2022/08/03 04:12:11;;;;;;;1999.90;999.90;;;;;;;15.32;100.00;99938.91;5053528;28;20345;-53
2022/08/03 04:14:57;;;;;;;1999.90;999.90;;;;;;;15.46;100.00;99935.66;5055399;28;20063;-52
2022/08/03 04:17:43;;;;;;;1999.90;999.90;;;;;;;15.61;100.00;99940.28;5055729;28;20041;-54
2022/08/03 04:20:31;;;;;;;1999.90;999.90;;;;;;;15.68;100.00;99938.25;5054230;28;20139;-52
2022/08/03 04:23:21;;;;;;;1999.90;999.90;;;;;;;15.91;100.00;99932.81;5059406;28;20047;-52
2022/08/03 04:26:10;;;;;;;1999.90;999.90;;;;;;;16.09;100.00;99934.63;5059477;28;20045;-53
2022/08/03 04:28:57;;;;;;;1999.90;999.90;;;;;;;16.28;100.00;99939.94;5065055;28;20057;-51
2022/08/03 04:31:42;;;;;;;1999.90;999.90;;;;;;;16.72;100.00;99944.03;5065879;28;20055;-52
2022/08/03 04:34:27;;;;;;;1999.90;999.90;;;;;;;17.33;100.00;99951.63;5060587;28;20075;-52
2022/08/03 04:37:30;;;;;;;1999.90;999.90;;;;;;;17.40;100.00;99953.00;5066044;28;20051;-51
2022/08/03 04:40:26;;;;;;;1999.90;999.90;;;;;;;17.81;100.00;99954.47;5061894;28;20040;-53
2022/08/03 04:43:13;;;;;;;1999.90;999.90;;;;;;;18.07;100.00;99963.69;5057555;28;20044;-52
2022/08/03 04:45:59;;;;;;;1999.90;999.90;;;;;;;18.10;100.00;99958.22;5060846;28;20070;-52
2022/08/03 04:48:45;;;;;;;1999.90;999.90;;;;;;;18.34;100.00;99962.22;5057532;28;20568;-52
2022/08/03 04:51:30;;;;;;;1999.90;999.90;;;;;;;18.50;100.00;99961.38;5060353;28;20049;-52
2022/08/03 04:54:16;;;;;;;1999.90;999.90;;;;;;;19.08;100.00;99960.78;5067660;28;20078;-52
2022/08/03 04:57:00;;;;;;;1999.90;999.90;;;;;;;19.09;100.00;99958.03;5061614;28;20094;-52
2022/08/03 04:59:45;;;;;;;1999.90;999.90;;;;;;;19.28;100.00;99957.81;5064594;28;20052;-53
2022/08/03 05:02:30;;;;;;;1999.90;999.90;;;;;;;19.85;100.00;99957.94;5055728;28;20049;-53
2022/08/03 05:05:16;;;;;;;1999.90;999.90;;;;;;;19.96;100.00;99959.97;5061638;28;20055;-53
2022/08/03 05:08:00;;;;;;;1999.90;999.90;;;;;;;20.08;100.00;99950.34;5069377;28;20430;-53
2022/08/03 05:10:45;;;;;;;1999.90;999.90;;;;;;;20.41;100.00;99952.72;5070495;28;20047;-53
2022/08/03 05:13:30;;;;;;;1999.90;999.90;;;;;;;20.57;100.00;99957.06;5069719;28;20043;-53
2022/08/03 05:16:14;;;;;;;1999.90;999.90;;;;;;;20.77;100.00;99946.03;5066101;28;20083;-53
2022/08/03 05:18:59;;;;;;;1999.90;999.90;;;;;;;20.69;100.00;99943.84;5067150;28;20045;-54
2022/08/03 05:21:43;;;;;;;1999.90;999.90;;;;;;;20.51;100.00;99942.38;5067674;28;20040;-53
2022/08/03 05:24:27;;;;;;;1999.90;999.90;;;;;;;20.53;100.00;99948.44;5067391;28;20057;-54
2022/08/03 05:27:17;;;;;;;1999.90;999.90;;;;;;;20.45;100.00;99945.41;5065073;28;20499;-53
2022/08/03 05:30:03;;;;;;;1999.90;999.90;;;;;;;20.74;100.00;99954.19;5063957;28;20048;-53
2022/08/03 05:32:47;;;;;;;1999.90;999.90;;;;;;;20.31;100.00;99951.56;5066667;28;20052;-53
2022/08/03 05:35:34;;;;;;;1999.90;999.90;;;;;;;20.18;100.00;99951.50;5068007;28;20052;-55
2022/08/03 05:38:19;;;;;;;1999.90;999.90;;;;;;;20.18;100.00;99958.63;5068604;28;20037;-55
2022/08/03 05:41:04;;;;;;;1999.90;999.90;;;;;;;20.24;100.00;99950.25;5065182;28;20727;-53
2022/08/03 05:43:52;;;;;;;1999.90;999.90;;;;;;;20.26;100.00;99951.88;5063549;28;20131;-53
2022/08/03 05:46:36;;;;;;;1999.90;999.90;;;;;;;20.18;100.00;99956.84;5058827;28;20638;-53
2022/08/03 05:49:21;;;;;;;1999.90;999.90;;;;;;;20.38;100.00;99950.25;5066469;28;20075;-53
2022/08/03 05:52:05;;;;;;;1999.90;999.90;;;;;;;20.33;100.00;99951.50;5067598;28;20051;-53
2022/08/03 05:54:49;;;;;;;1999.90;999.90;;;;;;;20.21;100.00;99953.94;5056807;28;20103;-53
2022/08/03 05:57:35;;;;;;;1999.90;999.90;;;;;;;20.28;100.00;99957.13;5065565;28;20067;-54
2022/08/03 06:00:19;;;;;;;1999.90;999.90;;;;;;;20.46;100.00;99965.72;5059804;28;20051;-53
2022/08/03 06:03:04;;;;;;;1999.90;999.90;;;;;;;20.49;100.00;99969.03;5061823;28;20067;-53
2022/08/03 06:05:48;;;;;;;1999.90;999.90;;;;;;;20.80;100.00;99961.78;5061178;28;20067;-54
2022/08/03 06:08:33;;;;;;;1999.90;999.90;;;;;;;20.90;100.00;99964.72;5072426;28;20059;-54
2022/08/03 06:11:17;;;;;;;1999.90;999.90;;;;;;;20.72;100.00;99961.41;5067027;28;20399;-53
2022/08/03 06:14:02;;;;;;;1999.90;999.90;;;;;;;21.21;100.00;99961.72;5057437;28;20048;-53
2022/08/03 06:16:46;;;;;;;1999.90;999.90;;;;;;;21.55;100.00;99978.13;5066426;28;20055;-53
2022/08/03 06:19:31;;;;;;;1999.90;999.90;;;;;;;21.54;100.00;99972.91;5070909;28;20059;-54
2022/08/03 06:22:15;;;;;;;1999.90;999.90;;;;;;;21.87;100.00;99969.72;5069323;28;20139;-53
2022/08/03 06:25:00;;;;;;;1999.90;999.90;;;;;;;21.97;100.00;99970.81;5072847;28;20043;-53
2022/08/03 06:27:44;;;;;;;1999.90;999.90;;;;;;;21.96;100.00;99968.22;5073109;28;20410;-53
2022/08/03 06:30:32;;;;;;;1999.90;999.90;;;;;;;21.93;100.00;99967.47;5060281;28;20080;-56
2022/08/03 06:33:18;;;;;;;1999.90;999.90;;;;;;;21.82;100.00;99978.03;5056613;28;20045;-53
2022/08/03 06:36:03;;;;;;;1999.90;999.90;;;;;;;21.90;100.00;99978.38;5058022;28;20053;-54
2022/08/03 06:38:47;;;;;;;1999.90;999.90;;;;;;;22.41;100.00;99974.84;5058151;28;20152;-53
2022/08/03 06:41:32;;;;;;;1999.90;999.90;;;;;;;22.49;100.00;99984.94;5063580;28;20066;-53
2022/08/03 06:44:16;;;;;;;1999.90;999.90;;;;;;;22.49;100.00;99977.81;5058361;28;20048;-53
2022/08/03 06:47:01;;;;;;;1999.90;999.90;;;;;;;22.71;100.00;99995.78;5057195;28;20105;-54
2022/08/03 06:49:46;;;;;;;1999.90;999.90;;;;;;;22.76;100.00;99985.63;5058806;28;20048;-53
2022/08/03 06:52:31;;;;;;;1999.90;999.90;;;;;;;22.79;100.00;99992.56;5057966;28;20045;-53
2022/08/03 06:55:16;;;;;;;1999.90;999.90;;;;;;;22.86;100.00;99991.16;5055891;28;20065;-54
2022/08/03 06:58:01;;;;;;;1999.90;999.90;;;;;;;22.98;100.00;99992.13;5071702;28;20056;-53
2022/08/03 07:00:45;;;;;;;1999.90;999.90;;;;;;;23.26;100.00;99994.41;5050271;28;20484;-55
2022/08/03 07:03:30;;;;;;;1999.90;999.90;;;;;;;23.20;100.00;99991.34;5054489;28;20076;-55
2022/08/03 07:06:14;;;;;;;1999.90;999.90;;;;;;;22.81;100.00;99994.19;5052617;28;20648;-54
2022/08/03 07:08:58;;;;;;;1999.90;999.90;;;;;;;22.85;100.00;99992.97;5056000;28;20067;-54
2022/08/03 07:11:42;;;;;;;1999.90;999.90;;;;;;;22.89;100.00;99992.75;5057062;28;20055;-54
2022/08/03 07:14:27;;;;;;;1999.90;999.90;;;;;;;23.86;100.00;99983.72;5053959;28;20060;-54
2022/08/03 07:17:11;;;;;;;1999.90;999.90;;;;;;;24.10;100.00;99986.28;5052612;28;20049;-54
2022/08/03 07:19:57;;;;;;;1999.90;999.90;;;;;;;24.67;100.00;99978.16;5058859;28;20045;-53
2022/08/03 07:22:41;;;;;;;1999.90;999.90;;;;;;;24.65;100.00;99982.75;5051871;28;20048;-54
2022/08/03 07:25:26;;;;;;;1999.90;999.90;;;;;;;24.88;100.00;99977.38;5055184;28;20044;-54
2022/08/03 07:28:10;;;;;;;1999.90;999.90;;;;;;;25.30;100.00;99977.50;5061549;28;20043;-53
2022/08/03 07:30:54;;;;;;;1999.90;999.90;;;;;;;26.04;100.00;99975.63;5058200;28;20432;-54
2022/08/03 07:33:39;;;;;;;1999.90;999.90;;;;;;;26.11;100.00;99979.47;5061630;28;20048;-54
2022/08/03 07:36:24;;;;;;;1999.90;999.90;;;;;;;26.87;100.00;99980.88;5058591;28;20098;-54
2022/08/03 07:39:08;;;;;;;1999.90;999.90;;;;;;;26.88;100.00;99983.44;5064819;28;20055;-55
2022/08/03 07:41:53;;;;;;;1999.90;999.90;;;;;;;27.10;100.00;99976.09;5056566;28;20051;-55
2022/08/03 07:44:38;;;;;;;1999.90;999.90;;;;;;;27.35;100.00;99978.25;5058018;28;20350;-54
2022/08/03 07:47:25;;;;;;;1999.90;999.90;;;;;;;27.02;100.00;99979.50;5052481;28;20048;-55
2022/08/03 07:50:09;;;;;;;1999.90;999.90;;;;;;;26.75;100.00;99980.16;5061618;28;20105;-55
2022/08/03 07:52:54;;;;;;;1999.90;999.90;;;;;;;27.36;100.00;99971.03;5055918;28;20178;-54
2022/08/03 07:55:39;;;;;;;1999.90;999.90;;;;;;;27.44;100.00;99966.66;5061847;28;20098;-55
2022/08/03 07:58:24;;;;;;;1999.90;999.90;;;;;;;27.44;100.00;99971.19;5063995;28;20047;-56
2022/08/03 08:01:08;;;;;;;1999.90;999.90;;;;;;;27.97;100.00;99965.31;5058363;28;20403;-54
2022/08/03 08:03:53;;;;;;;1999.90;999.90;;;;;;;27.50;100.00;99976.00;5068243;28;20486;-54
2022/08/03 08:06:37;;;;;;;1999.90;999.90;;;;;;;28.36;96.43;99962.47;5050505;28;20066;-55
2022/08/03 08:09:22;;;;;;;1999.90;999.90;;;;;;;28.03;93.64;99970.09;5050260;28;20908;-54
2022/08/03 08:12:07;;;;;;;1999.90;999.90;;;;;;;28.53;92.20;99963.53;5047663;28;20059;-55
2022/08/03 08:14:52;;;;;;;1999.90;999.90;;;;;;;28.41;92.62;99977.22;5056084;28;20590;-56
2022/08/03 08:17:44;;;;;;;1999.90;999.90;;;;;;;28.40;89.45;99963.88;5062253;28;20071;-56
2022/08/03 08:20:32;;;;;;;1999.90;999.90;;;;;;;27.91;86.01;99972.09;5056503;28;20037;-56
2022/08/03 08:23:22;;;;;;;1999.90;999.90;;;;;;;28.95;84.01;99968.38;5061855;28;20059;-55
2022/08/03 08:26:07;;;;;;;1999.90;999.90;;;;;;;29.06;83.38;99968.22;5056625;28;20073;-56
2022/08/03 08:28:51;;;;;;;1999.90;999.90;;;;;;;29.41;85.49;99975.41;5058212;28;20090;-55
2022/08/03 08:31:36;;;;;;;1999.90;999.90;;;;;;;29.25;81.96;99973.44;5054126;28;20080;-55
2022/08/03 08:34:21;;;;;;;1999.90;999.90;;;;;;;29.34;72.69;99967.09;5063688;28;20067;-56
2022/08/03 08:37:05;;;;;;;1999.90;999.90;;;;;;;29.94;76.50;99970.97;5056035;28;20087;-55
2022/08/03 08:39:49;;;;;;;1999.90;999.90;;;;;;;29.14;75.38;99980.91;5054755;28;20114;-55
2022/08/03 08:42:41;;;;;;;1999.90;999.90;;;;;;;29.43;74.34;99972.56;5051497;28;20110;-56
2022/08/03 08:45:26;;;;;;;1999.90;999.90;;;;;;;30.13;76.08;99968.03;5061464;28;20519;-56
2022/08/03 08:48:13;;;;;;;1999.90;999.90;;;;;;;29.16;74.30;99970.81;5056509;28;20067;-56
2022/08/03 08:50:59;;;;;;;1999.90;999.90;;;;;;;29.38;74.44;99969.47;5059057;28;20045;-56
2022/08/03 08:53:48;;;;;;;1999.90;999.90;;;;;;;29.94;78.16;99970.97;5061854;28;20482;-56
2022/08/03 08:56:32;;;;;;;1999.90;999.90;;;;;;;29.92;76.59;99957.59;5060214;28;20130;-56
2022/08/03 08:59:17;;;;;;;1999.90;999.90;;;;;;;29.69;73.58;99951.91;5051407;28;20067;-56
2022/08/03 09:02:02;;;;;;;1999.90;999.90;;;;;;;30.97;72.09;99960.94;5055375;28;20041;-56
2022/08/03 09:04:47;;;;;;;1999.90;999.90;;;;;;;29.92;70.62;99943.25;5058570;28;20495;-56
2022/08/03 09:07:32;;;;;;;1999.90;999.90;;;;;;;29.82;72.41;99964.97;5054086;28;20560;-56
2022/08/03 09:10:23;;;;;;;1999.90;999.90;;;;;;;30.61;72.49;99968.44;5057349;28;20056;-56
2022/08/03 09:13:07;;;;;;;1999.90;999.90;;;;;;;30.61;72.14;99963.84;5068762;28;20387;-56
2022/08/03 09:16:12;;;;;;;1999.90;999.90;;;;;;;30.25;70.94;99964.06;5057233;28;20041;-55
2022/08/03 09:19:12;;;;;;;1999.90;999.90;;;;;;;30.86;69.82;99970.22;5072006;28;20174;-55
2022/08/03 09:22:10;;;;;;;1999.90;999.90;;;;;;;30.79;68.38;99962.94;5056722;28;20051;-56
2022/08/03 09:24:57;;;;;;;1999.90;999.90;;;;;;;30.68;70.94;99966.75;5061978;28;20138;-56
2022/08/03 09:27:44;;;;;;;1999.90;999.90;;;;;;;31.09;71.62;99966.88;5076424;28;20122;-56
2022/08/03 09:30:29;;;;;;;1999.90;999.90;;;;;;;31.68;66.00;99967.59;5072079;28;20051;-56
2022/08/03 09:33:17;;;;;;;1999.90;999.90;;;;;;;30.91;66.11;99961.63;5075463;28;20523;-55
2022/08/03 09:36:02;;;;;;;1999.90;999.90;;;;;;;31.78;66.90;99957.41;5059432;28;20120;-56
2022/08/03 09:39:01;;;;;;;1999.90;999.90;;;;;;;30.78;65.48;99955.81;5057711;28;20044;-56
2022/08/03 09:42:03;;;;;;;1999.90;999.90;;;;;;;31.86;69.17;99943.88;5060122;28;20083;-56
2022/08/03 09:44:49;;;;;;;;;;;;;;;30.52;66.23;99951.34;5055497;28;20049;-56
2022/08/03 09:47:36;;;;;;;1999.90;999.90;;;;;;;31.41;64.44;99945.28;5063546;28;19929;-56
2022/08/03 09:50:21;;;;;;;1999.90;999.90;;;;;;;31.36;65.98;99946.81;5072229;28;20071;-56
2022/08/03 09:53:06;;;;;;;1999.90;999.90;;;;;;;31.17;65.46;99939.88;5071216;28;20047;-55
2022/08/03 09:55:52;;;;;;;1999.90;999.90;;;;;;;31.72;63.31;99938.31;5071501;28;20483;-56
2022/08/03 09:58:49;;;;;;;1999.90;999.90;;;;;;;32.00;61.74;99941.50;5068848;28;20052;-56
2022/08/03 10:01:36;;;;;;;1999.90;999.90;;;;;;;32.07;60.58;99945.19;5068724;28;20135;-56
2022/08/03 10:04:21;;;;;;;1999.90;999.90;;;;;;;31.52;60.91;99944.09;5066719;28;20040;-57
2022/08/03 10:07:08;;;;;;;1999.90;999.90;;;;;;;31.36;59.88;99944.97;5074358;28;20101;-56
2022/08/03 10:09:57;;;;;;;1999.90;999.90;;;;;;;31.51;62.88;99941.56;5059871;28;20045;-56
2022/08/03 10:12:43;;;;;;;1999.90;999.90;;;;;;;31.54;63.62;99930.41;5067113;28;20462;-57
2022/08/03 10:15:28;;;;;;;1999.90;999.90;;;;;;;31.97;65.42;99942.69;5068854;28;20407;-56
2022/08/03 10:18:13;;;;;;;1999.90;999.90;;;;;;;32.64;58.40;99942.28;5067175;28;20033;-56
2022/08/03 10:21:09;;;;;;;1999.90;999.90;;;;;;;32.40;59.71;99926.09;5053169;28;20048;-56
2022/08/03 10:23:54;;;;;;;1999.90;999.90;;;;;;;32.45;56.35;99918.34;5058537;28;20045;-57
2022/08/03 10:26:40;;;;;;;1999.90;999.90;;;;;;;31.49;59.68;99928.19;5060361;28;20075;-56
2022/08/03 10:29:27;;;;;;;1999.90;999.90;;;;;;;31.84;62.84;99932.38;5059154;28;20059;-57
2022/08/03 10:32:23;;;;;;;1999.90;999.90;;;;;;;31.90;58.94;99930.88;5059143;28;20055;-56
2022/08/03 10:35:19;;;;;;;1999.90;999.90;;;;;;;32.50;58.96;99935.75;5058169;28;20056;-56
2022/08/03 10:38:08;;;;;;;1999.90;999.90;;;;;;;32.52;61.36;99928.28;5057064;28;20476;-57
2022/08/03 10:40:54;;;;;;;1999.90;999.90;;;;;;;32.17;60.41;99924.16;5056272;28;20408;-58
2022/08/03 10:43:49;;;;;;;1999.90;999.90;;;;;;;32.98;62.22;99931.06;5064077;28;20045;-57
2022/08/03 10:46:35;;;;;;;1999.90;999.90;;;;;;;32.38;62.58;99920.88;5053955;28;21602;-56
2022/08/03 10:49:20;;;;;;;1999.90;999.90;;;;;;;32.42;58.62;99924.91;5061984;28;20582;-57
2022/08/03 10:52:05;;;;;;;1999.90;999.90;;;;;;;32.72;57.17;99922.41;5062154;28;20502;-57
2022/08/03 10:57:53;;;;;;;1999.90;999.90;;;;;;;32.21;57.12;99914.69;5058413;28;20503;-56
2022/08/03 11:00:49;;;;;;;1999.90;999.90;;;;;;;31.76;58.32;99915.31;5056952;28;20067;-56
2022/08/03 11:03:54;;;;;;;1999.90;999.90;;;;;;;32.34;59.09;99919.56;5056807;28;20057;-56
2022/08/03 11:06:38;;;;;;;1999.90;999.90;;;;;;;31.45;58.47;99905.22;5057386;28;20076;-57
2022/08/03 11:09:23;;;;;;;1999.90;999.90;;;;;;;31.58;60.13;99908.22;5056374;28;20056;-56
2022/08/03 11:12:40;;;;;;;1999.90;999.90;;;;;;;31.39;60.53;99914.00;5052452;28;20163;-56
2022/08/03 11:15:33;;;;;;;1999.90;999.90;;;;;;;31.11;61.90;99910.78;5018334;28;20076;-56
2022/08/03 11:18:17;;;;;;;1999.90;999.90;;;;;;;31.39;61.21;99906.75;5053288;28;20048;-55
2022/08/03 11:21:02;;;;;;;1999.90;999.90;;;;;;;31.63;62.45;99902.31;5053353;28;20056;-56
2022/08/03 11:23:47;;;;;;;1999.90;999.90;;;;;;;31.65;63.35;99911.97;5056503;28;20040;-56
2022/08/03 11:26:33;;;;;;;1999.90;999.90;;;;;;;32.01;63.77;99916.97;5050455;28;20064;-57
2022/08/03 11:29:27;;;;;;;1999.90;999.90;;;;;;;32.26;60.12;99906.03;5055557;28;20103;-56
2022/08/03 11:32:44;;;;;;;1999.90;999.90;;;;;;;31.52;60.67;99906.22;5055888;28;20051;-56
2022/08/03 11:35:34;;;;;;;1999.90;999.90;;;;;;;32.29;62.40;99900.25;5057356;28;20095;-55
2022/08/03 11:38:23;;;;;;;1999.90;999.90;;;;;;;32.28;58.83;99901.28;5062043;28;20060;-56
2022/08/03 11:41:34;;;;;;;1999.90;999.90;;;;;;;31.70;56.93;99903.31;5056279;28;20048;-55
2022/08/03 11:44:39;;;;;;;1999.90;999.90;;;;;;;31.03;63.11;99902.66;5057895;28;20040;-56
2022/08/03 11:47:26;;;;;;;1999.90;999.90;;;;;;;30.55;63.26;99896.13;5053906;28;20132;-55
2022/08/03 11:50:10;;;;;;;1999.90;999.90;;;;;;;30.18;60.14;99906.28;5061636;28;20045;-56
2022/08/03 11:52:54;;;;;;;1999.90;999.90;;;;;;;31.05;64.03;99904.19;5055412;28;20128;-55
2022/08/03 11:55:42;;;;;;;1999.90;999.90;;;;;;;31.17;62.82;99899.28;5059270;28;20040;-56
2022/08/03 11:58:28;;;;;;;1999.90;999.90;;;;;;;31.21;62.23;99895.22;5055721;28;20052;-55
2022/08/03 12:01:15;;;;;;;1999.90;999.90;;;;;;;31.36;59.98;99892.69;5054480;28;20071;-56
2022/08/03 12:04:03;;;;;;;1999.90;999.90;;;;;;;31.46;64.10;99890.69;5058955;28;20036;-55
2022/08/03 12:06:59;;;;;;;1999.90;999.90;;;;;;;31.33;59.94;99898.44;5055277;28;20400;-56
2022/08/03 12:10:03;;;;;;;1999.90;999.90;;;;;;;32.06;59.85;99879.38;5059893;28;20094;-55
2022/08/03 12:12:57;;;;;;;1999.90;999.90;;;;;;;30.68;58.21;99893.78;5053942;28;20048;-55
2022/08/03 12:15:41;;;;;;;1999.90;999.90;;;;;;;31.22;59.37;99886.09;5057429;28;20044;-56
2022/08/03 12:18:26;;;;;;;1999.90;999.90;;;;;;;32.22;57.35;99883.88;5056464;28;20048;-56
2022/08/03 12:21:11;;;;;;;1999.90;999.90;;;;;;;31.98;53.05;99876.72;5053594;28;20047;-55
2022/08/03 12:24:01;;;;;;;1999.90;999.90;;;;;;;31.86;57.62;99876.19;5059065;28;20384;-57
2022/08/03 12:26:47;;;;;;;1999.90;999.90;;;;;;;31.57;57.55;99884.06;5054030;28;20091;-56